createdAt,value
2022-10-01T00:01:19.622Z,91.50
2022-10-01T00:03:47.716Z,91.50
2022-10-01T00:06:20.399Z,91.40
2022-10-01T00:08:49.462Z,91.50
2022-10-01T00:11:22.145Z,91.40
2022-10-01T00:13:49.798Z,91.30
2022-10-01T00:16:20.247Z,91.20
2022-10-01T00:18:48.278Z,91.30
2022-10-01T00:21:17.905Z,91.30
2022-10-01T00:23:45.998Z,91.30
2022-10-01T00:26:16.930Z,91.30
2022-10-01T00:28:46.229Z,91.30
2022-10-01T00:31:14.402Z,91.30
2022-10-01T00:33:41.675Z,91.30
2022-10-01T00:36:09.857Z,91.20
2022-10-01T00:38:38.575Z,91.30
2022-10-01T00:41:06.459Z,91.20
2022-10-01T00:43:40.320Z,91.20
2022-10-01T00:46:23.128Z,91.20
2022-10-01T00:48:58.218Z,91.20
2022-10-01T00:51:32.592Z,91.20
2022-10-01T00:54:07.737Z,91.20
2022-10-01T00:56:34.516Z,91.20
2022-10-01T00:59:02.163Z,91.10
2022-10-01T01:01:28.946Z,91.20
2022-10-01T01:03:58.220Z,91.20
2022-10-01T01:06:25.065Z,91.10
2022-10-01T01:08:55.172Z,91.00
2022-10-01T01:11:40.031Z,91.10
2022-10-01T01:14:22.801Z,91.20
2022-10-01T01:17:02.542Z,91.10
2022-10-01T01:19:56.569Z,91.00
2022-10-01T01:22:26.687Z,91.00
2022-10-01T01:25:16.870Z,91.10
2022-10-01T01:28:01.836Z,91.10
2022-10-01T01:30:32.936Z,91.10
2022-10-01T01:33:13.369Z,91.00
2022-10-01T01:35:56.553Z,91.10
2022-10-01T01:38:28.553Z,91.00
2022-10-01T01:41:00.213Z,91.00
2022-10-01T01:43:33.306Z,91.00
2022-10-01T01:46:03.739Z,91.00
2022-10-01T01:48:31.959Z,91.00
2022-10-01T01:51:26.007Z,91.00
2022-10-01T01:53:54.358Z,90.90
2022-10-01T01:56:21.093Z,91.10
2022-10-01T01:58:48.002Z,91.00
2022-10-01T02:01:35.209Z,90.90
2022-10-01T02:04:25.391Z,90.90
2022-10-01T02:07:03.972Z,90.90
2022-10-01T02:09:47.063Z,90.90
2022-10-01T02:12:29.353Z,90.90
2022-10-01T02:15:08.493Z,90.90
2022-10-01T02:17:54.097Z,90.80
2022-10-01T02:20:33.026Z,90.90
2022-10-01T02:23:06.478Z,90.70
2022-10-01T02:25:42.226Z,90.80
2022-10-01T02:28:16.654Z,90.80
2022-10-01T02:30:46.778Z,90.80
2022-10-01T02:33:17.759Z,91.10
2022-10-01T02:35:46.833Z,90.80
2022-10-01T02:38:15.159Z,90.90
2022-10-01T02:40:44.991Z,90.90
2022-10-01T02:43:16.968Z,90.90
2022-10-01T02:45:47.954Z,90.80
2022-10-01T02:48:18.055Z,90.70
2022-10-01T02:50:53.391Z,91.00
2022-10-01T02:53:26.013Z,90.80
2022-10-01T02:55:53.884Z,90.80
2022-10-01T02:58:21.040Z,90.70
2022-10-01T03:00:47.832Z,90.70
2022-10-01T03:03:14.573Z,90.70
2022-10-01T03:05:41.433Z,90.70
2022-10-01T03:08:08.214Z,90.70
2022-10-01T03:10:35.345Z,90.80
2022-10-01T03:13:02.165Z,90.70
2022-10-01T03:15:29.255Z,90.70
2022-10-01T03:17:55.993Z,90.70
2022-10-01T03:20:22.865Z,90.70
2022-10-01T03:22:49.858Z,90.70
2022-10-01T03:25:17.109Z,90.60
2022-10-01T03:27:43.944Z,90.70
2022-10-01T03:30:11.756Z,90.60
2022-10-01T03:32:38.600Z,90.60
2022-10-01T03:35:05.775Z,90.70
2022-10-01T03:37:32.431Z,90.70
2022-10-01T03:39:59.087Z,90.90
2022-10-01T03:42:25.797Z,90.80
2022-10-01T03:44:52.995Z,90.70
2022-10-01T03:47:19.651Z,90.80
2022-10-01T03:49:46.290Z,90.90
2022-10-01T03:52:12.970Z,90.90
2022-10-01T03:54:39.653Z,90.80
2022-10-01T03:57:06.875Z,90.70
2022-10-01T03:59:33.597Z,90.70
2022-10-01T04:02:00.344Z,90.70
2022-10-01T04:04:28.929Z,90.60
2022-10-01T04:06:55.673Z,90.60
2022-10-01T04:09:22.404Z,90.60
2022-10-01T04:11:49.315Z,90.60
2022-10-01T04:14:16.048Z,90.60
2022-10-01T04:16:43.405Z,90.70
2022-10-01T04:19:10.076Z,90.60
2022-10-01T04:21:39.026Z,90.60
2022-10-01T04:24:05.957Z,90.60
2022-10-01T04:26:32.715Z,90.60
2022-10-01T04:28:59.430Z,90.50
2022-10-01T04:31:26.360Z,90.60
2022-10-01T04:33:54.879Z,90.50
2022-10-01T04:36:21.937Z,90.40
2022-10-01T04:38:51.872Z,90.50
2022-10-01T04:41:18.810Z,90.60
2022-10-01T04:43:45.745Z,90.50
2022-10-01T04:46:12.664Z,90.50
2022-10-01T04:48:39.369Z,90.50
2022-10-01T04:51:06.281Z,90.50
2022-10-01T04:53:32.948Z,90.40
2022-10-01T04:55:59.658Z,90.40
2022-10-01T04:58:26.893Z,90.40
2022-10-01T05:00:54.379Z,90.40
2022-10-01T05:03:23.157Z,90.40
2022-10-01T05:05:49.926Z,90.40
2022-10-01T05:08:16.811Z,90.40
2022-10-01T05:10:43.921Z,90.40
2022-10-01T05:13:11.036Z,90.40
2022-10-01T05:15:38.478Z,90.40
2022-10-01T05:18:05.208Z,90.40
2022-10-01T05:20:33.951Z,90.30
2022-10-01T05:23:00.632Z,90.30
2022-10-01T05:25:27.329Z,90.40
2022-10-01T05:27:59.951Z,90.30
2022-10-01T05:30:26.759Z,90.30
2022-10-01T05:32:55.864Z,90.30
2022-10-01T05:35:22.588Z,90.40
2022-10-01T05:37:53.266Z,90.40
2022-10-01T05:40:20.147Z,90.30
2022-10-01T05:42:47.519Z,90.30
2022-10-01T05:45:16.522Z,90.30
2022-10-01T05:47:44.725Z,90.50
2022-10-01T05:50:11.484Z,90.40
2022-10-01T05:52:38.482Z,90.70
2022-10-01T05:55:05.472Z,90.50
2022-10-01T05:57:32.192Z,90.50
2022-10-01T05:59:58.914Z,90.60
2022-10-01T06:02:25.768Z,90.60
2022-10-01T06:04:52.578Z,90.50
2022-10-01T06:07:19.573Z,90.50
2022-10-01T06:09:46.651Z,90.50
2022-10-01T06:12:17.719Z,90.50
2022-10-01T06:14:46.584Z,90.40
2022-10-01T06:17:13.253Z,90.40
2022-10-01T06:19:41.761Z,90.20
2022-10-01T06:22:09.778Z,90.10
2022-10-01T06:24:36.654Z,90.20
2022-10-01T06:27:05.064Z,90.20
2022-10-01T06:29:31.901Z,90.30
2022-10-01T06:31:58.796Z,90.40
2022-10-01T06:34:26.547Z,90.30
2022-10-01T06:36:53.518Z,90.30
2022-10-01T06:39:20.458Z,90.40
2022-10-01T06:41:48.149Z,90.40
2022-10-01T06:44:15.188Z,90.50
2022-10-01T06:46:41.874Z,90.50
2022-10-01T06:49:08.865Z,90.40
2022-10-01T06:51:54.197Z,90.50
2022-10-01T06:54:20.932Z,90.50
2022-10-01T06:56:47.698Z,90.40
2022-10-01T06:59:14.736Z,90.40
2022-10-01T07:01:41.535Z,90.40
2022-10-01T07:04:08.860Z,90.40
2022-10-01T07:06:35.594Z,90.50
2022-10-01T07:09:02.311Z,90.50
2022-10-01T07:11:29.040Z,90.40
2022-10-01T07:13:57.533Z,90.50
2022-10-01T07:16:24.353Z,90.50
2022-10-01T07:18:52.176Z,90.50
2022-10-01T07:21:18.880Z,90.30
2022-10-01T07:23:45.537Z,90.30
2022-10-01T07:26:12.346Z,90.20
2022-10-01T07:28:39.989Z,90.20
2022-10-01T07:31:11.243Z,90.20
2022-10-01T07:33:38.920Z,90.20
2022-10-01T07:36:08.792Z,90.30
2022-10-01T07:38:35.724Z,90.30
2022-10-01T07:41:03.405Z,90.30
2022-10-01T07:43:31.481Z,90.20
2022-10-01T07:46:00.199Z,90.20
2022-10-01T07:48:28.147Z,90.20
2022-10-01T07:50:55.938Z,90.20
2022-10-01T07:53:24.397Z,90.20
2022-10-01T07:55:51.113Z,90.20
2022-10-01T07:58:18.688Z,90.20
2022-10-01T08:00:45.675Z,90.20
2022-10-01T08:03:12.465Z,90.20
2022-10-01T08:05:43.212Z,90.20
2022-10-01T08:08:10.454Z,90.20
2022-10-01T08:10:38.849Z,90.20
2022-10-01T08:13:16.825Z,90.10
2022-10-01T08:15:50.538Z,90.10
2022-10-01T08:18:17.394Z,90.20
2022-10-01T08:20:44.707Z,90.20
2022-10-01T08:23:14.766Z,90.10
2022-10-01T08:25:43.643Z,90.20
2022-10-01T08:28:11.613Z,90.20
2022-10-01T08:30:40.803Z,90.20
2022-10-01T08:33:09.963Z,90.20
2022-10-01T08:35:40.302Z,90.20
2022-10-01T08:38:08.311Z,90.30
2022-10-01T08:40:41.257Z,90.20
2022-10-01T08:43:31.957Z,90.20
2022-10-01T08:46:06.590Z,90.10
2022-10-01T08:48:56.954Z,90.00
2022-10-01T08:51:28.128Z,90.10
2022-10-01T08:54:14.249Z,90.10
2022-10-01T08:56:46.399Z,90.10
2022-10-01T08:59:57.765Z,90.10
2022-10-01T09:02:29.490Z,90.00
2022-10-01T09:05:02.550Z,90.60
2022-10-01T09:07:56.388Z,90.70
2022-10-01T09:10:25.613Z,90.90
2022-10-01T09:13:23.192Z,91.40
2022-10-01T09:16:01.921Z,91.50
2022-10-01T09:18:31.449Z,92.40
2022-10-01T09:20:59.382Z,92.90
2022-10-01T09:23:39.967Z,94.20
2022-10-01T09:26:11.741Z,95.50
2022-10-01T09:28:40.589Z,96.50
2022-10-01T09:31:21.593Z,97.30
2022-10-01T09:34:10.788Z,99.20
2022-10-01T09:36:57.246Z,99.50
2022-10-01T09:39:39.153Z,99.90
2022-10-01T09:42:08.761Z,99.90
2022-10-01T09:44:41.102Z,99.90
2022-10-01T09:47:20.184Z,99.90
2022-10-01T09:49:49.349Z,99.90
2022-10-01T09:52:33.548Z,99.90
2022-10-01T09:55:18.902Z,99.90
2022-10-01T09:57:52.629Z,99.90
2022-10-01T10:00:21.856Z,99.90
2022-10-01T10:02:54.186Z,99.90
2022-10-01T10:05:22.824Z,99.90
2022-10-01T10:07:53.622Z,99.90
2022-10-01T10:10:27.935Z,99.90
2022-10-01T10:13:01.628Z,99.90
2022-10-01T10:15:32.516Z,99.90
2022-10-01T10:18:08.760Z,99.90
2022-10-01T10:20:44.098Z,99.90
2022-10-01T10:23:20.785Z,99.90
2022-10-01T10:26:03.549Z,99.90
2022-10-01T10:28:43.881Z,99.90
2022-10-01T10:31:15.975Z,99.90
2022-10-01T10:34:01.044Z,99.90
2022-10-01T10:36:32.683Z,99.90
2022-10-01T10:39:00.235Z,99.90
2022-10-01T10:41:29.493Z,99.90
2022-10-01T10:44:05.975Z,99.90
2022-10-01T10:46:35.634Z,99.90
2022-10-01T10:49:07.867Z,99.90
2022-10-01T10:51:54.054Z,99.90
2022-10-01T10:54:40.552Z,99.90
2022-10-01T10:57:28.059Z,99.90
2022-10-01T11:00:02.936Z,99.90
2022-10-01T11:02:32.758Z,99.70
2022-10-01T11:05:35.233Z,99.00
2022-10-01T11:08:14.227Z,99.20
2022-10-01T11:10:49.539Z,98.50
2022-10-01T11:13:39.321Z,98.30
2022-10-01T11:16:25.113Z,98.60
2022-10-01T11:19:41.933Z,98.90
2022-10-01T11:22:12.467Z,98.80
2022-10-01T11:25:05.052Z,98.20
2022-10-01T11:27:36.807Z,98.70
2022-10-01T11:30:09.789Z,98.70
2022-10-01T11:33:14.002Z,98.40
2022-10-01T11:35:47.203Z,98.60
2022-10-01T11:38:30.601Z,99.20
2022-10-01T11:41:00.921Z,99.00
2022-10-01T11:43:42.459Z,99.30
2022-10-01T11:46:20.120Z,99.10
2022-10-01T11:49:02.382Z,99.80
2022-10-01T11:51:43.726Z,99.80
2022-10-01T11:54:21.886Z,99.90
2022-10-01T11:57:11.828Z,99.60
2022-10-01T11:59:52.048Z,99.90
2022-10-01T12:02:40.576Z,99.90
2022-10-01T12:05:25.747Z,99.60
2022-10-01T12:08:24.271Z,99.30
2022-10-01T12:10:55.480Z,99.10
2022-10-01T12:13:34.361Z,99.80
2022-10-01T12:16:32.195Z,99.40
2022-10-01T12:19:13.613Z,99.00
2022-10-01T12:22:06.851Z,98.70
2022-10-01T12:24:45.094Z,98.60
2022-10-01T12:27:33.561Z,98.40
2022-10-01T12:30:20.359Z,97.80
2022-10-01T12:33:20.413Z,97.80
2022-10-01T12:36:03.158Z,97.60
2022-10-01T12:38:56.410Z,98.10
2022-10-01T12:41:34.739Z,98.20
2022-10-01T12:44:17.836Z,98.00
2022-10-01T12:47:06.247Z,97.60
2022-10-01T12:49:59.458Z,97.30
2022-10-01T12:52:48.160Z,97.20
2022-10-01T12:55:35.785Z,97.00
2022-10-01T12:58:15.351Z,97.00
2022-10-01T13:00:53.974Z,96.90
2022-10-01T13:03:29.902Z,96.60
2022-10-01T13:06:18.922Z,96.10
2022-10-01T13:08:55.441Z,96.20
2022-10-01T13:11:49.368Z,96.20
2022-10-01T13:14:18.131Z,96.20
2022-10-01T13:17:21.418Z,96.20
2022-10-01T13:20:23.860Z,95.90
2022-10-01T13:23:07.538Z,95.90
2022-10-01T13:25:41.712Z,95.50
2022-10-01T13:28:21.684Z,95.30
2022-10-01T13:31:00.478Z,95.30
2022-10-01T13:33:38.059Z,95.30
2022-10-01T13:36:09.425Z,95.40
2022-10-01T13:38:40.299Z,95.60
2022-10-01T13:41:29.506Z,95.50
2022-10-01T13:44:01.696Z,95.70
2022-10-01T13:46:42.893Z,95.30
2022-10-01T13:49:31.525Z,95.20
2022-10-01T13:51:59.285Z,94.80
2022-10-01T13:54:36.662Z,94.50
2022-10-01T13:57:11.101Z,94.10
2022-10-01T13:59:38.801Z,93.80
2022-10-01T14:02:29.430Z,93.70
2022-10-01T14:05:03.846Z,93.40
2022-10-01T14:07:35.890Z,93.00
2022-10-01T14:10:03.599Z,92.60
2022-10-01T14:12:52.409Z,92.40
2022-10-01T14:15:44.236Z,92.20
2022-10-01T14:18:19.554Z,92.20
2022-10-01T14:21:02.972Z,92.10
2022-10-01T14:23:35.745Z,92.10
2022-10-01T14:26:26.665Z,92.00
2022-10-01T14:29:07.040Z,91.60
2022-10-01T14:32:21.083Z,90.60
2022-10-01T14:35:23.780Z,91.00
2022-10-01T14:38:01.720Z,90.80
2022-10-01T14:40:41.213Z,91.20
2022-10-01T14:43:17.229Z,91.40
2022-10-01T14:45:51.262Z,91.60
2022-10-01T14:48:17.984Z,91.60
2022-10-01T14:50:49.693Z,91.80
2022-10-01T14:53:18.946Z,91.90
2022-10-01T14:55:48.170Z,92.00
2022-10-01T14:58:37.501Z,92.20
2022-10-01T15:01:05.832Z,92.20
2022-10-01T15:03:40.562Z,92.20
2022-10-01T15:06:16.746Z,92.50
2022-10-01T15:08:47.237Z,92.40
2022-10-01T15:11:23.557Z,92.50
2022-10-01T15:13:53.005Z,92.70
2022-10-01T15:16:27.388Z,92.60
2022-10-01T15:18:59.258Z,92.70
2022-10-01T15:22:02.251Z,92.70
2022-10-01T15:24:41.789Z,92.80
2022-10-01T15:27:14.951Z,92.80
2022-10-01T15:29:43.182Z,92.90
2022-10-01T15:32:18.667Z,93.00
2022-10-01T15:34:53.846Z,93.00
2022-10-01T15:37:36.279Z,93.10
2022-10-01T15:40:06.097Z,93.00
2022-10-01T15:42:37.478Z,92.90
2022-10-01T15:45:08.328Z,93.20
2022-10-01T15:48:12.256Z,93.50
2022-10-01T15:50:57.394Z,93.40
2022-10-01T15:53:24.109Z,93.40
2022-10-01T15:55:53.227Z,93.50
2022-10-01T15:58:21.605Z,93.80
2022-10-01T16:00:51.441Z,93.80
2022-10-01T16:03:23.693Z,93.70
2022-10-01T16:05:55.277Z,93.60
2022-10-01T16:08:34.446Z,93.70
2022-10-01T16:11:13.828Z,94.00
2022-10-01T16:13:44.944Z,93.90
2022-10-01T16:16:15.489Z,93.90
2022-10-01T16:18:43.018Z,93.90
2022-10-01T16:21:11.509Z,94.10
2022-10-01T16:23:48.068Z,94.10
2022-10-01T16:26:27.244Z,94.20
2022-10-01T16:28:57.358Z,94.10
2022-10-01T16:31:27.288Z,94.20
2022-10-01T16:33:54.039Z,94.20
2022-10-01T16:36:24.038Z,94.30
2022-10-01T16:38:51.440Z,94.10
2022-10-01T16:41:24.611Z,94.20
2022-10-01T16:43:53.682Z,94.30
2022-10-01T16:46:20.534Z,94.30
2022-10-01T16:48:51.699Z,94.10
2022-10-01T16:51:19.466Z,94.40
2022-10-01T16:53:47.062Z,94.50
2022-10-01T16:56:16.757Z,94.40
2022-10-01T16:58:49.176Z,94.50
2022-10-01T17:01:15.988Z,94.20
2022-10-01T17:03:42.755Z,94.40
2022-10-01T17:06:09.751Z,94.50
2022-10-01T17:08:36.924Z,94.20
2022-10-01T17:11:08.529Z,94.40
2022-10-01T17:13:38.919Z,94.50
2022-10-01T17:16:06.455Z,94.40
2022-10-01T17:18:33.306Z,94.30
2022-10-01T17:21:04.082Z,94.50
2022-10-01T17:23:31.732Z,94.50
2022-10-01T17:25:59.376Z,94.40
2022-10-01T17:28:27.142Z,94.20
2022-10-01T17:30:54.409Z,94.10
2022-10-01T17:33:21.944Z,94.30
2022-10-01T17:35:51.947Z,94.20
2022-10-01T17:38:19.733Z,94.20
2022-10-01T17:40:51.815Z,94.10
2022-10-01T17:43:24.474Z,94.40
2022-10-01T17:45:59.188Z,94.80
2022-10-01T17:48:27.422Z,95.60
2022-10-01T17:51:01.503Z,97.50
2022-10-01T17:53:33.506Z,99.30
2022-10-01T17:56:07.602Z,99.90
2022-10-01T17:58:35.347Z,99.90
2022-10-01T18:01:02.653Z,99.90
2022-10-01T18:03:29.473Z,99.90
2022-10-01T18:06:05.468Z,99.90
2022-10-01T18:08:51.259Z,99.40
2022-10-01T18:11:28.204Z,99.10
2022-10-01T18:14:08.453Z,98.90
2022-10-01T18:16:40.284Z,98.50
2022-10-01T18:22:15.078Z,97.60
2022-10-01T18:24:45.921Z,97.50
2022-10-01T18:27:13.136Z,97.40
2022-10-01T18:29:47.841Z,97.10
2022-10-01T18:32:32.523Z,96.90
2022-10-01T18:35:01.826Z,96.80
2022-10-01T18:37:40.468Z,96.60
2022-10-01T18:40:10.198Z,96.60
2022-10-01T18:42:51.758Z,95.90
2022-10-01T18:45:42.921Z,95.70
2022-10-01T18:48:37.476Z,95.40
2022-10-01T18:51:34.890Z,95.30
2022-10-01T18:54:26.848Z,95.00
2022-10-01T18:57:11.865Z,94.50
2022-10-01T19:00:08.563Z,94.20
2022-10-01T19:02:49.452Z,94.40
2022-10-01T19:05:16.971Z,94.40
2022-10-01T19:07:52.925Z,94.50
2022-10-01T19:10:48.562Z,94.40
2022-10-01T19:13:33.260Z,94.50
2022-10-01T19:16:19.461Z,94.50
2022-10-01T19:18:48.912Z,94.50
2022-10-01T19:21:32.519Z,94.50
2022-10-01T19:24:34.938Z,94.40
2022-10-01T19:27:01.653Z,94.60
2022-10-01T19:29:44.323Z,94.60
2022-10-01T19:32:17.359Z,94.50
2022-10-01T19:34:53.054Z,94.90
2022-10-01T19:37:38.370Z,94.90
2022-10-01T19:40:18.490Z,94.80
2022-10-01T19:43:20.121Z,95.10
2022-10-01T19:46:19.139Z,95.00
2022-10-01T19:49:06.439Z,95.10
2022-10-01T19:51:57.855Z,94.90
2022-10-01T19:54:37.372Z,95.00
2022-10-01T19:57:15.335Z,94.90
2022-10-01T19:59:42.065Z,95.00
2022-10-01T20:02:32.072Z,95.20
2022-10-01T20:05:06.348Z,95.20
2022-10-01T20:08:05.149Z,95.20
2022-10-01T20:10:56.938Z,95.10
2022-10-01T20:13:50.497Z,95.20
2022-10-01T20:16:36.198Z,95.30
2022-10-01T20:19:19.664Z,95.30
2022-10-01T20:22:22.892Z,95.20
2022-10-01T20:25:02.889Z,95.30
2022-10-01T20:27:30.274Z,95.40
2022-10-01T20:30:14.233Z,95.20
2022-10-01T20:33:00.874Z,95.30
2022-10-01T20:35:40.458Z,95.10
2022-10-01T20:38:14.924Z,95.10
2022-10-01T20:41:09.107Z,95.20
2022-10-01T20:43:44.500Z,95.20
2022-10-01T20:46:38.126Z,95.20
2022-10-01T20:49:15.211Z,95.20
2022-10-01T20:51:53.252Z,95.30
2022-10-01T20:54:26.585Z,95.40
2022-10-01T20:56:59.823Z,95.40
2022-10-01T20:59:40.268Z,95.40
2022-10-01T21:02:42.645Z,95.20
2022-10-01T21:05:22.779Z,95.20
2022-10-01T21:08:04.475Z,95.20
2022-10-01T21:10:45.681Z,95.30
2022-10-01T21:13:22.302Z,95.20
2022-10-01T21:16:02.636Z,95.10
2022-10-01T21:18:59.785Z,95.10
2022-10-01T21:21:38.981Z,95.30
2022-10-01T21:24:17.506Z,95.50
2022-10-01T21:26:52.417Z,95.50
2022-10-01T21:29:37.698Z,95.40
2022-10-01T21:32:41.908Z,95.40
2022-10-01T21:35:24.017Z,95.40
2022-10-01T21:38:16.948Z,95.80
2022-10-01T21:40:57.907Z,95.30
2022-10-01T21:43:56.737Z,95.30
2022-10-01T21:46:23.452Z,95.20
2022-10-01T21:49:27.948Z,95.80
2022-10-01T21:52:10.790Z,95.50
2022-10-01T21:55:22.068Z,95.50
2022-10-01T21:57:57.708Z,95.40
2022-10-01T22:00:28.758Z,95.40
2022-10-01T22:03:14.212Z,95.30
2022-10-01T22:06:11.803Z,95.60
2022-10-01T22:08:59.633Z,96.10
2022-10-01T22:11:35.069Z,96.50
2022-10-01T22:14:05.991Z,96.20
2022-10-01T22:16:47.032Z,95.80
2022-10-01T22:19:19.258Z,96.20
2022-10-01T22:21:50.121Z,96.00
2022-10-01T22:24:26.721Z,96.20
2022-10-01T22:27:11.320Z,96.00
2022-10-01T22:29:44.614Z,96.00
2022-10-01T22:32:16.227Z,96.40
2022-10-01T22:34:47.944Z,96.10
2022-10-01T22:37:27.811Z,96.20
2022-10-01T22:40:20.543Z,96.10
2022-10-01T22:43:00.776Z,96.20
2022-10-01T22:45:45.563Z,95.90
2022-10-01T22:48:50.578Z,96.00
2022-10-01T22:51:23.441Z,96.40
2022-10-01T22:54:18.103Z,96.30
2022-10-01T22:57:21.948Z,96.00
2022-10-01T23:00:03.713Z,96.10
2022-10-01T23:02:38.881Z,96.30
2022-10-01T23:05:40.933Z,96.10
2022-10-01T23:08:16.520Z,95.90
2022-10-01T23:10:58.334Z,96.10
2022-10-01T23:13:36.351Z,96.20
2022-10-01T23:16:20.443Z,96.50
2022-10-01T23:18:59.441Z,96.00
2022-10-01T23:21:54.515Z,95.90
2022-10-01T23:24:31.802Z,95.90
2022-10-01T23:27:01.355Z,96.10
2022-10-01T23:29:48.339Z,95.90
2022-10-01T23:32:57.161Z,95.90
2022-10-01T23:35:34.800Z,96.30
2022-10-01T23:38:29.536Z,96.00
2022-10-01T23:41:10.219Z,96.00
2022-10-01T23:43:46.825Z,96.30
2022-10-01T23:46:22.738Z,96.10
2022-10-01T23:49:12.450Z,96.30
2022-10-01T23:52:02.790Z,96.00
2022-10-01T23:54:43.376Z,96.20
2022-10-01T23:57:18.773Z,96.30
